sensor_id;sensor_type;location;lat;lon;timestamp;pressure;altitude;pressure_sealevel;temperature;humidity
56604;BME280;42486;47.478;19.036;2023-01-29T00:00:09;100950.81;;;0.88;100.00
56604;BME280;42486;47.478;19.036;2023-01-29T00:03:12;100945.75;;;0.84;100.00
56604;BME280;42486;47.478;19.036;2023-01-29T00:06:17;100946.66;;;0.83;100.00
56604;BME280;42486;47.478;19.036;2023-01-29T00:09:21;100946.66;;;0.81;100.00
56604;BME280;42486;47.478;19.036;2023-01-29T00:12:27;100944.25;;;0.75;100.00
56604;BME280;42486;47.478;19.036;2023-01-29T00:15:31;100947.75;;;0.71;100.00
56604;BME280;42486;47.478;19.036;2023-01-29T00:18:39;100951.91;;;0.77;100.00
56604;BME280;42486;47.478;19.036;2023-01-29T00:21:45;100956.41;;;0.69;100.00
56604;BME280;42486;47.478;19.036;2023-01-29T00:24:51;100953.94;;;0.64;100.00
56604;BME280;42486;47.478;19.036;2023-01-29T00:27:56;100965.91;;;0.65;100.00
56604;BME280;42486;47.478;19.036;2023-01-29T00:31:12;100964.25;;;0.64;100.00
56604;BME280;42486;47.478;19.036;2023-01-29T00:34:20;100970.38;;;0.57;100.00
56604;BME280;42486;47.478;19.036;2023-01-29T00:37:27;100975.72;;;0.48;100.00
56604;BME280;42486;47.478;19.036;2023-01-29T00:40:31;100971.44;;;0.48;100.00
56604;BME280;42486;47.478;19.036;2023-01-29T00:43:55;100978.25;;;0.49;100.00
56604;BME280;42486;47.478;19.036;2023-01-29T00:47:19;100972.22;;;0.50;100.00
56604;BME280;42486;47.478;19.036;2023-01-29T00:50:41;100966.41;;;0.43;100.00
56604;BME280;42486;47.478;19.036;2023-01-29T00:53:49;100975.75;;;0.46;100.00
56604;BME280;42486;47.478;19.036;2023-01-29T00:56:53;100976.69;;;0.43;100.00
56604;BME280;42486;47.478;19.036;2023-01-29T01:00:02;100978.34;;;0.44;100.00
56604;BME280;42486;47.478;19.036;2023-01-29T01:03:09;100979.34;;;0.39;100.00
56604;BME280;42486;47.478;19.036;2023-01-29T01:06:14;100976.16;;;0.28;100.00
56604;BME280;42486;47.478;19.036;2023-01-29T01:09:18;100978.88;;;0.21;100.00
56604;BME280;42486;47.478;19.036;2023-01-29T01:12:42;100978.94;;;0.17;100.00
56604;BME280;42486;47.478;19.036;2023-01-29T01:15:46;100975.72;;;0.07;100.00
56604;BME280;42486;47.478;19.036;2023-01-29T01:18:52;100968.84;;;0.08;100.00
56604;BME280;42486;47.478;19.036;2023-01-29T01:21:55;100964.75;;;-0.01;100.00
56604;BME280;42486;47.478;19.036;2023-01-29T01:24:59;100979.59;;;-0.15;100.00
56604;BME280;42486;47.478;19.036;2023-01-29T01:28:02;100977.25;;;-0.28;100.00
56604;BME280;42486;47.478;19.036;2023-01-29T01:31:10;100979.13;;;-0.36;100.00
56604;BME280;42486;47.478;19.036;2023-01-29T01:34:15;100980.06;;;-0.41;100.00
56604;BME280;42486;47.478;19.036;2023-01-29T01:37:20;100979.37;;;-0.50;100.00
56604;BME280;42486;47.478;19.036;2023-01-29T01:40:24;100982.87;;;-0.55;100.00
56604;BME280;42486;47.478;19.036;2023-01-29T01:43:44;100992.22;;;-0.51;100.00
56604;BME280;42486;47.478;19.036;2023-01-29T01:46:50;100993.81;;;-0.46;100.00
56604;BME280;42486;47.478;19.036;2023-01-29T01:49:55;100992.97;;;-0.45;100.00
56604;BME280;42486;47.478;19.036;2023-01-29T01:53:08;101000.72;;;-0.48;100.00
56604;BME280;42486;47.478;19.036;2023-01-29T01:56:15;101006.00;;;-0.55;100.00
56604;BME280;42486;47.478;19.036;2023-01-29T01:59:22;100993.22;;;-0.60;100.00
56604;BME280;42486;47.478;19.036;2023-01-29T02:02:26;101003.56;;;-0.63;100.00
56604;BME280;42486;47.478;19.036;2023-01-29T02:05:48;100996.75;;;-0.67;100.00
56604;BME280;42486;47.478;19.036;2023-01-29T02:09:24;101001.22;;;-0.78;100.00
56604;BME280;42486;47.478;19.036;2023-01-29T02:12:37;101001.25;;;-0.80;100.00
56604;BME280;42486;47.478;19.036;2023-01-29T02:15:41;100997.94;;;-0.85;100.00
56604;BME280;42486;47.478;19.036;2023-01-29T02:18:49;101006.47;;;-0.86;100.00
56604;BME280;42486;47.478;19.036;2023-01-29T02:22:54;101000.63;;;-0.93;100.00
56604;BME280;42486;47.478;19.036;2023-01-29T02:26:11;101006.66;;;-0.97;100.00
56604;BME280;42486;47.478;19.036;2023-01-29T02:32:52;101013.50;;;-0.99;100.00
56604;BME280;42486;47.478;19.036;2023-01-29T02:36:18;101011.94;;;-1.06;100.00
56604;BME280;42486;47.478;19.036;2023-01-29T02:49:32;101018.91;;;-1.16;100.00
56604;BME280;42486;47.478;19.036;2023-01-29T02:52:57;101030.97;;;-1.22;100.00
56604;BME280;42486;47.478;19.036;2023-01-29T02:56:10;101031.03;;;-1.28;100.00
56604;BME280;42486;47.478;19.036;2023-01-29T02:59:26;101034.53;;;-1.33;100.00
56604;BME280;42486;47.478;19.036;2023-01-29T03:06:17;101032.81;;;-1.32;100.00
56604;BME280;42486;47.478;19.036;2023-01-29T03:09:47;101032.84;;;-1.35;100.00
56604;BME280;42486;47.478;19.036;2023-01-29T03:12:59;101029.41;;;-1.34;100.00
56604;BME280;42486;47.478;19.036;2023-01-29T03:16:23;101035.31;;;-1.29;100.00
56604;BME280;42486;47.478;19.036;2023-01-29T03:19:48;101041.28;;;-1.28;100.00
56604;BME280;42486;47.478;19.036;2023-01-29T03:23:06;101036.94;;;-1.23;100.00
56604;BME280;42486;47.478;19.036;2023-01-29T03:26:14;101034.28;;;-1.16;100.00
56604;BME280;42486;47.478;19.036;2023-01-29T03:29:46;101035.69;;;-0.96;100.00
56604;BME280;42486;47.478;19.036;2023-01-29T03:34:25;101040.66;;;-0.84;100.00
56604;BME280;42486;47.478;19.036;2023-01-29T03:42:54;101048.78;;;-0.59;100.00
56604;BME280;42486;47.478;19.036;2023-01-29T03:47:05;101051.91;;;-0.40;100.00
56604;BME280;42486;47.478;19.036;2023-01-29T03:51:13;101050.09;;;-0.35;100.00
56604;BME280;42486;47.478;19.036;2023-01-29T04:50:35;101057.84;;;0.10;100.00
56604;BME280;42486;47.478;19.036;2023-01-29T04:54:22;101056.03;;;0.17;100.00
56604;BME280;42486;47.478;19.036;2023-01-29T05:02:06;101055.19;;;0.15;100.00
56604;BME280;42486;47.478;19.036;2023-01-29T05:06:09;101057.06;;;0.07;100.00
56604;BME280;42486;47.478;19.036;2023-01-29T05:09:57;101057.97;;;0.06;99.78
56604;BME280;42486;47.478;19.036;2023-01-29T05:14:06;101047.53;;;0.13;100.00
56604;BME280;42486;47.478;19.036;2023-01-29T05:17:29;101058.66;;;0.12;99.68
56604;BME280;42486;47.478;19.036;2023-01-29T05:21:00;101053.59;;;0.11;99.96
56604;BME280;42486;47.478;19.036;2023-01-29T05:24:52;101064.00;;;0.03;99.06
56604;BME280;42486;47.478;19.036;2023-01-29T05:28:40;101052.06;;;0.01;98.76
56604;BME280;42486;47.478;19.036;2023-01-29T05:40:08;101058.66;;;0.12;98.42
56604;BME280;42486;47.478;19.036;2023-01-29T05:43:25;101053.53;;;0.14;97.72
56604;BME280;42486;47.478;19.036;2023-01-29T05:46:50;101056.22;;;0.06;97.21
56604;BME280;42486;47.478;19.036;2023-01-29T05:50:26;101059.56;;;0.10;96.61
56604;BME280;42486;47.478;19.036;2023-01-29T05:53:56;101061.09;;;0.20;96.18
56604;BME280;42486;47.478;19.036;2023-01-29T05:57:47;101062.69;;;0.27;96.94
56604;BME280;42486;47.478;19.036;2023-01-29T06:01:26;101063.66;;;0.20;95.04
56604;BME280;42486;47.478;19.036;2023-01-29T06:05:36;101061.84;;;0.25;96.83
56604;BME280;42486;47.478;19.036;2023-01-29T06:09:05;101062.75;;;0.24;94.19
56604;BME280;42486;47.478;19.036;2023-01-29T06:12:21;101074.50;;;0.34;95.36
56604;BME280;42486;47.478;19.036;2023-01-29T06:15:31;101078.03;;;0.30;94.53
56604;BME280;42486;47.478;19.036;2023-01-29T06:19:08;101076.44;;;0.23;95.03
56604;BME280;42486;47.478;19.036;2023-01-29T06:22:33;101084.03;;;0.31;96.57
56604;BME280;42486;47.478;19.036;2023-01-29T06:25:43;101090.97;;;0.26;96.25
56604;BME280;42486;47.478;19.036;2023-01-29T06:29:15;101094.69;;;0.09;98.56
56604;BME280;42486;47.478;19.036;2023-01-29T06:32:44;101099.78;;;0.12;98.33
56604;BME280;42486;47.478;19.036;2023-01-29T06:35:56;101111.06;;;0.04;100.00
56604;BME280;42486;47.478;19.036;2023-01-29T06:39:04;101113.84;;;-0.09;100.00
56604;BME280;42486;47.478;19.036;2023-01-29T06:42:23;101110.44;;;-0.11;100.00
56604;BME280;42486;47.478;19.036;2023-01-29T06:45:51;101112.22;;;-0.13;100.00
56604;BME280;42486;47.478;19.036;2023-01-29T06:48:58;101123.28;;;-0.11;100.00
56604;BME280;42486;47.478;19.036;2023-01-29T06:52:15;101119.94;;;-0.14;100.00
56604;BME280;42486;47.478;19.036;2023-01-29T06:55:52;101122.56;;;-0.17;100.00
56604;BME280;42486;47.478;19.036;2023-01-29T06:58:57;101132.66;;;-0.07;100.00
56604;BME280;42486;47.478;19.036;2023-01-29T07:02:29;101127.56;;;-0.10;100.00
56604;BME280;42486;47.478;19.036;2023-01-29T07:05:35;101125.19;;;-0.20;100.00
56604;BME280;42486;47.478;19.036;2023-01-29T07:08:53;101117.31;;;-0.11;100.00
56604;BME280;42486;47.478;19.036;2023-01-29T07:12:15;101112.28;;;-0.16;100.00
56604;BME280;42486;47.478;19.036;2023-01-29T07:15:32;101124.31;;;-0.19;100.00
56604;BME280;42486;47.478;19.036;2023-01-29T07:18:42;101121.66;;;-0.15;100.00
56604;BME280;42486;47.478;19.036;2023-01-29T07:21:49;101122.56;;;-0.16;100.00
56604;BME280;42486;47.478;19.036;2023-01-29T07:26:11;101117.25;;;-0.07;100.00
56604;BME280;42486;47.478;19.036;2023-01-29T07:29:44;101113.69;;;0.01;100.00
56604;BME280;42486;47.478;19.036;2023-01-29T07:33:52;101116.13;;;0.08;100.00
56604;BME280;42486;47.478;19.036;2023-01-29T07:37:40;101104.22;;;0.04;100.00
56604;BME280;42486;47.478;19.036;2023-01-29T07:41:28;101107.41;;;0.17;100.00
56604;BME280;42486;47.478;19.036;2023-01-29T07:45:43;101112.09;;;-0.05;100.00
56604;BME280;42486;47.478;19.036;2023-01-29T07:49:18;101098.19;;;0.05;100.00
56604;BME280;42486;47.478;19.036;2023-01-29T08:03:18;101109.78;;;0.26;99.55
56604;BME280;42486;47.478;19.036;2023-01-29T08:07:02;101110.56;;;0.31;98.83
56604;BME280;42486;47.478;19.036;2023-01-29T08:10:44;101102.06;;;0.28;97.73
56604;BME280;42486;47.478;19.036;2023-01-29T08:13:55;101103.72;;;0.30;95.94
56604;BME280;42486;47.478;19.036;2023-01-29T08:17:03;101106.03;;;0.42;96.97
56604;BME280;42486;47.478;19.036;2023-01-29T08:20:25;101112.22;;;0.34;95.93
56604;BME280;42486;47.478;19.036;2023-01-29T08:23:36;101107.09;;;0.34;95.47
56604;BME280;42486;47.478;19.036;2023-01-29T08:27:08;101115.41;;;0.47;96.18
56604;BME280;42486;47.478;19.036;2023-01-29T08:30:13;101123.91;;;0.50;95.10
56604;BME280;42486;47.478;19.036;2023-01-29T08:33:20;101127.88;;;0.67;96.60
56604;BME280;42486;47.478;19.036;2023-01-29T08:36:42;101128.47;;;0.34;94.10
56604;BME280;42486;47.478;19.036;2023-01-29T08:40:08;101129.84;;;0.54;95.01
56604;BME280;42486;47.478;19.036;2023-01-29T08:43:16;101134.87;;;0.58;94.75
56604;BME280;42486;47.478;19.036;2023-01-29T08:46:34;101140.34;;;0.85;95.73
56604;BME280;42486;47.478;19.036;2023-01-29T08:49:53;101148.97;;;0.82;92.55
56604;BME280;42486;47.478;19.036;2023-01-29T08:53:19;101154.44;;;0.67;92.17
56604;BME280;42486;47.478;19.036;2023-01-29T08:56:38;101160.97;;;0.83;92.31
56604;BME280;42486;47.478;19.036;2023-01-29T09:00:20;101167.62;;;0.92;90.40
56604;BME280;42486;47.478;19.036;2023-01-29T09:03:41;101165.78;;;0.57;92.25
56604;BME280;42486;47.478;19.036;2023-01-29T09:06:58;101168.41;;;0.54;89.64
56604;BME280;42486;47.478;19.036;2023-01-29T09:10:11;101174.47;;;0.50;90.66
56604;BME280;42486;47.478;19.036;2023-01-29T09:13:21;101171.69;;;0.62;92.00
56604;BME280;42486;47.478;19.036;2023-01-29T09:16:34;101178.72;;;0.52;90.79
56604;BME280;42486;47.478;19.036;2023-01-29T09:19:57;101170.84;;;0.60;89.12
56604;BME280;42486;47.478;19.036;2023-01-29T09:23:19;101180.25;;;0.61;89.70
56604;BME280;42486;47.478;19.036;2023-01-29T09:26:27;101170.00;;;0.59;89.24
56604;BME280;42486;47.478;19.036;2023-01-29T09:29:36;101179.72;;;0.43;88.97
56604;BME280;42486;47.478;19.036;2023-01-29T09:32:46;101176.06;;;0.57;89.42
56604;BME280;42486;47.478;19.036;2023-01-29T09:35:57;101173.88;;;0.35;89.46
56604;BME280;42486;47.478;19.036;2023-01-29T09:39:03;101188.78;;;0.64;89.58
56604;BME280;42486;47.478;19.036;2023-01-29T09:42:22;101179.47;;;0.56;88.29
56604;BME280;42486;47.478;19.036;2023-01-29T09:46:06;101186.84;;;0.74;86.75
56604;BME280;42486;47.478;19.036;2023-01-29T09:49:25;101183.97;;;0.91;87.26
56604;BME280;42486;47.478;19.036;2023-01-29T09:53:17;101194.13;;;0.96;86.05
56604;BME280;42486;47.478;19.036;2023-01-29T09:56:24;101192.06;;;0.71;85.79
56604;BME280;42486;47.478;19.036;2023-01-29T09:59:32;101187.09;;;0.62;86.09
56604;BME280;42486;47.478;19.036;2023-01-29T10:02:47;101189.53;;;0.68;85.81
56604;BME280;42486;47.478;19.036;2023-01-29T10:06:27;101193.91;;;0.64;86.40
56604;BME280;42486;47.478;19.036;2023-01-29T10:20:51;101196.69;;;0.54;84.15
56604;BME280;42486;47.478;19.036;2023-01-29T10:24:45;101193.78;;;0.72;84.00
56604;BME280;42486;47.478;19.036;2023-01-29T10:28:04;101186.75;;;0.80;82.68
56604;BME280;42486;47.478;19.036;2023-01-29T10:31:31;101176.25;;;0.91;83.85
56604;BME280;42486;47.478;19.036;2023-01-29T10:34:54;101184.88;;;0.88;82.55
56604;BME280;42486;47.478;19.036;2023-01-29T10:38:47;101189.03;;;0.51;82.46
56604;BME280;42486;47.478;19.036;2023-01-29T10:45:38;101186.28;;;0.58;81.75
56604;BME280;42486;47.478;19.036;2023-01-29T10:56:49;101162.63;;;0.41;80.28
56604;BME280;42486;47.478;19.036;2023-01-29T11:03:32;101145.69;;;0.31;79.73
56604;BME280;42486;47.478;19.036;2023-01-29T11:06:43;101137.66;;;0.48;79.63
56604;BME280;42486;47.478;19.036;2023-01-29T11:10:16;101134.84;;;0.61;79.51
56604;BME280;42486;47.478;19.036;2023-01-29T11:13:26;101135.47;;;0.73;78.64
56604;BME280;42486;47.478;19.036;2023-01-29T11:16:41;101128.87;;;0.59;78.37
56604;BME280;42486;47.478;19.036;2023-01-29T11:19:48;101128.37;;;0.40;78.24
56604;BME280;42486;47.478;19.036;2023-01-29T11:22:57;101132.56;;;0.44;78.43
56604;BME280;42486;47.478;19.036;2023-01-29T11:26:05;101129.84;;;0.54;78.65
56604;BME280;42486;47.478;19.036;2023-01-29T11:29:42;101112.28;;;0.32;77.76
56604;BME280;42486;47.478;19.036;2023-01-29T11:33:09;101113.09;;;0.33;78.18
56604;BME280;42486;47.478;19.036;2023-01-29T11:36:35;101121.69;;;0.75;76.58
56604;BME280;42486;47.478;19.036;2023-01-29T11:43:30;101108.84;;;0.74;74.26
56604;BME280;42486;47.478;19.036;2023-01-29T11:46:46;101100.47;;;0.65;73.54
56604;BME280;42486;47.478;19.036;2023-01-29T11:49:53;101086.56;;;0.74;73.56
56604;BME280;42486;47.478;19.036;2023-01-29T11:53:01;101086.28;;;0.88;74.91
56604;BME280;42486;47.478;19.036;2023-01-29T11:59:48;101074.19;;;0.92;72.05
56604;BME280;42486;47.478;19.036;2023-01-29T12:03:05;101076.00;;;0.88;71.22
56604;BME280;42486;47.478;19.036;2023-01-29T12:06:35;101073.78;;;1.10;71.15
56604;BME280;42486;47.478;19.036;2023-01-29T12:09:48;101077.66;;;1.28;69.87
56604;BME280;42486;47.478;19.036;2023-01-29T12:16:22;101082.38;;;1.09;68.93
56604;BME280;42486;47.478;19.036;2023-01-29T12:23:31;101068.97;;;0.95;70.45
56604;BME280;42486;47.478;19.036;2023-01-29T12:26:48;101064.66;;;0.97;69.62
56604;BME280;42486;47.478;19.036;2023-01-29T12:39:53;101061.28;;;1.66;67.91
56604;BME280;42486;47.478;19.036;2023-01-29T12:43:21;101073.34;;;1.64;66.62
56604;BME280;42486;47.478;19.036;2023-01-29T12:46:39;101077.81;;;1.58;65.70
56604;BME280;42486;47.478;19.036;2023-01-29T12:49:52;101077.37;;;1.74;65.74
56604;BME280;42486;47.478;19.036;2023-01-29T12:53:33;101060.97;;;1.79;66.67
56604;BME280;42486;47.478;19.036;2023-01-29T12:56:52;101070.13;;;1.20;65.39
56604;BME280;42486;47.478;19.036;2023-01-29T13:00:17;101070.81;;;0.90;68.63
56604;BME280;42486;47.478;19.036;2023-01-29T13:07:12;101052.69;;;0.55;70.73
56604;BME280;42486;47.478;19.036;2023-01-29T13:10:28;101041.69;;;0.05;71.69
56604;BME280;42486;47.478;19.036;2023-01-29T13:13:53;101048.81;;;-0.11;71.60
56604;BME280;42486;47.478;19.036;2023-01-29T13:20:28;101031.53;;;-0.49;72.60
56604;BME280;42486;47.478;19.036;2023-01-29T13:23:52;101019.66;;;-0.56;74.08
56604;BME280;42486;47.478;19.036;2023-01-29T13:27:00;101027.44;;;-0.59;73.57
56604;BME280;42486;47.478;19.036;2023-01-29T13:30:28;101013.81;;;-0.64;74.57
56604;BME280;42486;47.478;19.036;2023-01-29T13:33:40;101008.62;;;-0.60;75.39
56604;BME280;42486;47.478;19.036;2023-01-29T13:36:48;100995.44;;;-0.40;73.54
56604;BME280;42486;47.478;19.036;2023-01-29T13:40:01;101005.56;;;-0.31;73.55
56604;BME280;42486;47.478;19.036;2023-01-29T13:43:19;101006.00;;;-0.55;72.72
56604;BME280;42486;47.478;19.036;2023-01-29T13:46:28;101009.47;;;-0.59;73.62
56604;BME280;42486;47.478;19.036;2023-01-29T13:49:36;101018.22;;;-0.71;74.47
56604;BME280;42486;47.478;19.036;2023-01-29T13:53:02;101019.84;;;-0.65;74.85
56604;BME280;42486;47.478;19.036;2023-01-29T13:56:28;101019.13;;;-0.74;75.38
56604;BME280;42486;47.478;19.036;2023-01-29T13:59:52;101011.56;;;-0.83;75.41
56604;BME280;42486;47.478;19.036;2023-01-29T14:03:40;101009.16;;;-0.94;75.31
56604;BME280;42486;47.478;19.036;2023-01-29T14:07:38;100996.50;;;-1.03;75.65
56604;BME280;42486;47.478;19.036;2023-01-29T14:15:02;101011.66;;;-0.89;76.74
56604;BME280;42486;47.478;19.036;2023-01-29T14:18:18;101011.47;;;-0.77;76.50
56604;BME280;42486;47.478;19.036;2023-01-29T14:21:30;101019.00;;;-0.68;76.51
56604;BME280;42486;47.478;19.036;2023-01-29T14:24:42;101017.28;;;-0.65;75.98
56604;BME280;42486;47.478;19.036;2023-01-29T14:27:52;101018.59;;;-0.43;77.03
56604;BME280;42486;47.478;19.036;2023-01-29T14:31:00;101021.09;;;-0.40;75.86
56604;BME280;42486;47.478;19.036;2023-01-29T14:34:13;101012.91;;;-0.60;75.23
56604;BME280;42486;47.478;19.036;2023-01-29T14:37:30;101016.31;;;-0.58;75.25
56604;BME280;42486;47.478;19.036;2023-01-29T14:41:27;101018.09;;;-0.63;75.29
56604;BME280;42486;47.478;19.036;2023-01-29T14:44:55;101019.97;;;-0.73;76.35
56604;BME280;42486;47.478;19.036;2023-01-29T14:52:09;101013.94;;;-0.72;77.49
56604;BME280;42486;47.478;19.036;2023-01-29T14:55:42;101013.94;;;-0.72;76.73
56604;BME280;42486;47.478;19.036;2023-01-29T14:58:51;101020.09;;;-0.81;77.52
56604;BME280;42486;47.478;19.036;2023-01-29T15:02:03;101021.75;;;-0.78;78.17
56604;BME280;42486;47.478;19.036;2023-01-29T15:05:18;101016.69;;;-0.81;78.68
56604;BME280;42486;47.478;19.036;2023-01-29T15:08:28;101015.78;;;-0.80;77.66
56604;BME280;42486;47.478;19.036;2023-01-29T15:15:48;101019.56;;;-1.03;77.71
56604;BME280;42486;47.478;19.036;2023-01-29T15:18:56;101009.41;;;-1.09;78.01
56604;BME280;42486;47.478;19.036;2023-01-29T15:22:19;101004.41;;;-1.18;79.00
56604;BME280;42486;47.478;19.036;2023-01-29T15:25:36;101004.47;;;-1.21;78.56
56604;BME280;42486;47.478;19.036;2023-01-29T15:28:58;101006.06;;;-1.14;79.31
56604;BME280;42486;47.478;19.036;2023-01-29T15:32:06;100998.44;;;-1.20;78.75
56604;BME280;42486;47.478;19.036;2023-01-29T15:38:36;101003.84;;;-1.39;79.91
56604;BME280;42486;47.478;19.036;2023-01-29T15:41:43;101008.22;;;-1.47;80.50
56604;BME280;42486;47.478;19.036;2023-01-29T15:44:54;101004.91;;;-1.53;80.77
56604;BME280;42486;47.478;19.036;2023-01-29T15:48:17;101012.66;;;-1.58;81.94
56604;BME280;42486;47.478;19.036;2023-01-29T15:51:26;101003.34;;;-1.65;82.95
56604;BME280;42486;47.478;19.036;2023-01-29T15:54:33;101015.34;;;-1.67;84.42
56604;BME280;42486;47.478;19.036;2023-01-29T15:57:42;101010.19;;;-1.64;85.69
56604;BME280;42486;47.478;19.036;2023-01-29T16:00:51;101014.53;;;-1.72;82.99
56604;BME280;42486;47.478;19.036;2023-01-29T16:03:59;101023.16;;;-1.78;83.73
56604;BME280;42486;47.478;19.036;2023-01-29T16:07:07;101021.44;;;-1.78;85.01
56604;BME280;42486;47.478;19.036;2023-01-29T16:13:54;101019.84;;;-1.88;84.06
56604;BME280;42486;47.478;19.036;2023-01-29T16:17:22;101019.09;;;-1.96;85.68
56604;BME280;42486;47.478;19.036;2023-01-29T16:20:43;101024.25;;;-1.99;87.83
56604;BME280;42486;47.478;19.036;2023-01-29T16:23:51;101028.41;;;-1.92;84.85
56604;BME280;42486;47.478;19.036;2023-01-29T16:27:13;101026.72;;;-1.91;85.12
56604;BME280;42486;47.478;19.036;2023-01-29T16:30:25;101038.72;;;-1.98;84.90
56604;BME280;42486;47.478;19.036;2023-01-29T16:33:36;101043.84;;;-1.98;85.34
56604;BME280;42486;47.478;19.036;2023-01-29T16:36:49;101052.38;;;-1.97;84.99
56604;BME280;42486;47.478;19.036;2023-01-29T16:39:57;101055.00;;;-2.02;85.56
56604;BME280;42486;47.478;19.036;2023-01-29T16:46:37;101057.63;;;-2.10;84.68
56604;BME280;42486;47.478;19.036;2023-01-29T16:49:54;101052.56;;;-2.14;84.73
56604;BME280;42486;47.478;19.036;2023-01-29T16:53:11;101053.41;;;-2.12;86.38
56604;BME280;42486;47.478;19.036;2023-01-29T16:56:21;101061.91;;;-2.12;86.78
56604;BME280;42486;47.478;19.036;2023-01-29T16:59:34;101061.91;;;-2.12;86.81
56604;BME280;42486;47.478;19.036;2023-01-29T17:02:41;101055.97;;;-2.14;86.21
56604;BME280;42486;47.478;19.036;2023-01-29T17:05:45;101058.41;;;-2.03;88.03
56604;BME280;42486;47.478;19.036;2023-01-29T17:08:50;101063.63;;;-2.14;86.45
56604;BME280;42486;47.478;19.036;2023-01-29T17:11:56;101061.91;;;-2.12;86.25
56604;BME280;42486;47.478;19.036;2023-01-29T17:15:25;101052.59;;;-2.17;86.69
56604;BME280;42486;47.478;19.036;2023-01-29T17:18:30;101055.97;;;-2.12;86.71
56604;BME280;42486;47.478;19.036;2023-01-29T17:21:40;101052.53;;;-2.11;87.08
56604;BME280;42486;47.478;19.036;2023-01-29T17:24:50;101045.72;;;-2.12;88.28
56604;BME280;42486;47.478;19.036;2023-01-29T17:27:55;101054.25;;;-2.13;87.90
56604;BME280;42486;47.478;19.036;2023-01-29T17:31:02;101050.03;;;-2.19;88.20
56604;BME280;42486;47.478;19.036;2023-01-29T17:34:22;101052.59;;;-2.17;87.74
56604;BME280;42486;47.478;19.036;2023-01-29T17:37:28;101048.38;;;-2.26;88.15
56604;BME280;42486;47.478;19.036;2023-01-29T17:41:04;101039.88;;;-2.27;85.18
56604;BME280;42486;47.478;19.036;2023-01-29T17:44:10;101030.53;;;-2.31;84.77
56604;BME280;42486;47.478;19.036;2023-01-29T17:47:15;101027.22;;;-2.39;85.70
56604;BME280;42486;47.478;19.036;2023-01-29T17:50:24;101023.78;;;-2.39;87.18
56604;BME280;42486;47.478;19.036;2023-01-29T17:53:28;101028.03;;;-2.37;86.76
56604;BME280;42486;47.478;19.036;2023-01-29T17:56:48;101027.25;;;-2.42;85.91
56604;BME280;42486;47.478;19.036;2023-01-29T17:59:54;101018.72;;;-2.44;87.04
56604;BME280;42486;47.478;19.036;2023-01-29T18:02:57;101005.88;;;-2.38;89.04
56604;BME280;42486;47.478;19.036;2023-01-29T18:06:06;101006.78;;;-2.42;87.16
56604;BME280;42486;47.478;19.036;2023-01-29T18:09:13;101009.44;;;-2.54;85.95
56604;BME280;42486;47.478;19.036;2023-01-29T18:12:17;101006.91;;;-2.57;85.83
56604;BME280;42486;47.478;19.036;2023-01-29T18:15:21;101002.69;;;-2.61;87.07
56604;BME280;42486;47.478;19.036;2023-01-29T18:18:26;101004.38;;;-2.60;88.83
56604;BME280;42486;47.478;19.036;2023-01-29T18:21:30;101000.16;;;-2.66;89.05
56604;BME280;42486;47.478;19.036;2023-01-29T18:24:35;100999.31;;;-2.67;88.75
56604;BME280;42486;47.478;19.036;2023-01-29T18:27:40;100995.94;;;-2.72;89.52
56604;BME280;42486;47.478;19.036;2023-01-29T18:30:45;100991.69;;;-2.73;90.50
56604;BME280;42486;47.478;19.036;2023-01-29T18:33:49;100983.16;;;-2.70;89.50
56604;BME280;42486;47.478;19.036;2023-01-29T18:36:57;100981.53;;;-2.80;88.44
56604;BME280;42486;47.478;19.036;2023-01-29T18:40:02;100984.09;;;-2.80;89.42
56604;BME280;42486;47.478;19.036;2023-01-29T18:43:07;100985.03;;;-2.91;88.09
56604;BME280;42486;47.478;19.036;2023-01-29T18:46:11;100984.22;;;-2.94;88.63
56604;BME280;42486;47.478;19.036;2023-01-29T18:49:15;100986.72;;;-2.93;88.83
56604;BME280;42486;47.478;19.036;2023-01-29T18:52:19;100986.78;;;-2.97;90.07
56604;BME280;42486;47.478;19.036;2023-01-29T18:55:24;100990.19;;;-2.98;89.72
56604;BME280;42486;47.478;19.036;2023-01-29T18:58:32;100990.22;;;-3.01;87.75
56604;BME280;42486;47.478;19.036;2023-01-29T19:01:39;100996.19;;;-3.04;87.85
56604;BME280;42486;47.478;19.036;2023-01-29T19:04:44;100993.66;;;-3.04;88.51
56604;BME280;42486;47.478;19.036;2023-01-29T19:07:49;100985.97;;;-3.02;88.72
56604;BME280;42486;47.478;19.036;2023-01-29T19:10:54;100987.66;;;-3.01;88.19
56604;BME280;42486;47.478;19.036;2023-01-29T19:13:58;100991.09;;;-3.04;88.75
56604;BME280;42486;47.478;19.036;2023-01-29T19:17:02;100986.91;;;-3.11;89.76
56604;BME280;42486;47.478;19.036;2023-01-29T19:20:09;100981.78;;;-3.13;89.59
56604;BME280;42486;47.478;19.036;2023-01-29T19:23:14;100978.34;;;-3.07;87.24
56604;BME280;42486;47.478;19.036;2023-01-29T19:26:18;100980.03;;;-3.04;88.57
56604;BME280;42486;47.478;19.036;2023-01-29T19:29:22;100973.16;;;-3.01;86.99
56604;BME280;42486;47.478;19.036;2023-01-29T19:32:26;100973.16;;;-2.95;87.89
56604;BME280;42486;47.478;19.036;2023-01-29T19:35:33;100979.09;;;-2.94;89.11
56604;BME280;42486;47.478;19.036;2023-01-29T19:38:36;100980.84;;;-2.99;87.78
56604;BME280;42486;47.478;19.036;2023-01-29T19:41:41;100973.97;;;-2.90;89.06
56604;BME280;42486;47.478;19.036;2023-01-29T19:44:45;100970.62;;;-2.98;87.49
56604;BME280;42486;47.478;19.036;2023-01-29T19:47:48;100967.16;;;-2.92;88.14
56604;BME280;42486;47.478;19.036;2023-01-29T19:50:57;100958.69;;;-2.97;86.49
56604;BME280;42486;47.478;19.036;2023-01-29T19:54:01;100960.38;;;-2.98;86.75
56604;BME280;42486;47.478;19.036;2023-01-29T19:57:06;100964.62;;;-2.98;86.45
56604;BME280;42486;47.478;19.036;2023-01-29T20:00:10;100958.69;;;-2.99;85.75